createdAt,value
2023-01-18T00:03:36.718Z,79.44
2023-01-18T00:08:39.744Z,79.31
2023-01-18T00:13:41.804Z,79.24
2023-01-18T00:18:49.731Z,79.32
2023-01-18T00:23:51.520Z,79.87
2023-01-18T00:28:56.184Z,79.89
2023-01-18T00:33:58.544Z,79.63
2023-01-18T00:39:00.742Z,79.75
2023-01-18T00:44:02.445Z,79.65
2023-01-18T00:49:04.209Z,79.95
2023-01-18T00:54:05.865Z,79.31
2023-01-18T00:59:07.717Z,78.84
2023-01-18T01:04:28.166Z,78.86
2023-01-18T01:09:29.945Z,79.34
2023-01-18T01:14:52.301Z,79.45
2023-01-18T01:20:12.695Z,78.96
2023-01-18T01:25:33.183Z,79.21
2023-01-18T01:30:34.927Z,79.44
2023-01-18T01:35:36.643Z,80.00
2023-01-18T01:40:38.414Z,80.03
2023-01-18T01:45:40.125Z,79.75
2023-01-18T01:50:42.005Z,79.96
2023-01-18T01:55:43.756Z,80.19
2023-01-18T02:00:45.631Z,80.38
2023-01-18T02:05:50.492Z,80.49
2023-01-18T02:10:52.720Z,80.56
2023-01-18T02:16:06.640Z,80.34
2023-01-18T02:21:18.547Z,80.42
2023-01-18T02:26:48.458Z,80.27
2023-01-18T02:32:13.196Z,80.28
2023-01-18T02:37:20.977Z,80.05
2023-01-18T02:42:45.579Z,80.34
2023-01-18T02:47:48.307Z,80.84
2023-01-18T02:52:52.048Z,80.78
2023-01-18T02:58:00.117Z,80.54
2023-01-18T03:03:02.352Z,80.16
2023-01-18T03:08:27.291Z,79.98
2023-01-18T03:13:58.647Z,79.57
2023-01-18T03:19:25.179Z,80.11
2023-01-18T03:24:30.259Z,79.52
2023-01-18T03:29:51.029Z,79.26
2023-01-18T03:35:07.982Z,79.17
2023-01-18T03:40:27.344Z,79.33
2023-01-18T03:45:48.129Z,79.34
2023-01-18T03:51:00.290Z,79.49
2023-01-18T03:56:08.695Z,79.73
2023-01-18T04:01:10.641Z,79.56
2023-01-18T04:06:12.429Z,79.84
2023-01-18T04:11:14.081Z,79.92
2023-01-18T04:16:16.126Z,79.97
2023-01-18T04:21:18.018Z,79.36
2023-01-18T04:26:19.897Z,79.85
2023-01-18T04:31:22.552Z,79.57
2023-01-18T04:36:24.339Z,78.67
2023-01-18T04:41:26.027Z,78.70
2023-01-18T04:46:27.851Z,78.64
2023-01-18T04:51:31.337Z,78.54
2023-01-18T04:56:33.041Z,77.87
2023-01-18T05:01:35.701Z,77.84
2023-01-18T05:06:37.453Z,78.22
2023-01-18T05:11:39.224Z,78.16
2023-01-18T05:16:41.155Z,77.77
2023-01-18T05:21:42.952Z,77.82
2023-01-18T05:26:45.054Z,77.87
2023-01-18T05:31:46.843Z,77.79
2023-01-18T05:36:49.196Z,78.08
2023-01-18T05:41:50.890Z,78.20
2023-01-18T05:46:52.578Z,77.62
2023-01-18T05:51:54.236Z,77.94
2023-01-18T05:56:56.377Z,77.71
2023-01-18T06:01:58.095Z,77.67
2023-01-18T06:06:59.964Z,77.56
2023-01-18T06:12:02.047Z,77.59
2023-01-18T06:17:04.600Z,76.87
2023-01-18T06:22:06.671Z,76.82
2023-01-18T06:27:08.403Z,78.70
2023-01-18T06:32:10.119Z,76.93
2023-01-18T06:37:12.696Z,76.72
2023-01-18T06:42:14.503Z,76.72
2023-01-18T06:47:19.807Z,77.01
2023-01-18T06:52:21.895Z,76.46
2023-01-18T06:57:23.933Z,76.81
2023-01-18T07:02:25.612Z,76.09
2023-01-18T07:07:27.891Z,76.34
2023-01-18T07:12:29.554Z,76.77
2023-01-18T07:17:31.749Z,77.16
2023-01-18T07:22:33.418Z,77.27
2023-01-18T07:27:35.135Z,77.55
2023-01-18T07:32:36.767Z,76.83
2023-01-18T07:37:38.597Z,76.94
2023-01-18T07:42:40.549Z,77.25
2023-01-18T07:47:42.733Z,77.33
2023-01-18T07:52:44.543Z,77.31
2023-01-18T07:57:46.259Z,76.77
2023-01-18T08:02:51.018Z,76.90
2023-01-18T08:07:53.790Z,76.63
2023-01-18T08:12:55.613Z,77.19
2023-01-18T08:17:57.753Z,77.62
2023-01-18T08:23:00.840Z,77.28
2023-01-18T08:28:03.642Z,77.69
2023-01-18T08:33:05.677Z,77.96
2023-01-18T08:38:07.474Z,78.89
2023-01-18T08:43:10.956Z,79.38
2023-01-18T08:48:12.548Z,79.56
2023-01-18T08:53:14.235Z,79.70
2023-01-18T08:58:15.910Z,79.94
2023-01-18T09:03:21.959Z,80.74
2023-01-18T09:08:23.698Z,80.90
2023-01-18T09:13:25.358Z,80.80
2023-01-18T09:18:27.159Z,81.23
2023-01-18T09:23:28.810Z,81.79
2023-01-18T09:28:31.565Z,81.23
2023-01-18T09:33:37.869Z,81.03
2023-01-18T09:38:44.713Z,81.70
2023-01-18T09:43:52.874Z,81.88
2023-01-18T09:48:59.323Z,81.90
2023-01-18T09:54:14.000Z,82.71
2023-01-18T09:59:32.908Z,83.22
2023-01-18T10:04:41.054Z,84.05
2023-01-18T10:09:49.403Z,85.22
2023-01-18T10:15:22.911Z,86.35
2023-01-18T10:20:44.309Z,87.02
2023-01-18T10:25:53.292Z,87.79
2023-01-18T10:31:06.325Z,88.13
2023-01-18T10:36:16.312Z,88.16
2023-01-18T10:41:28.029Z,88.54
2023-01-18T10:46:30.508Z,88.39
2023-01-18T10:51:36.362Z,88.00
2023-01-18T10:56:39.967Z,87.58
2023-01-18T11:02:01.127Z,86.93
2023-01-18T11:07:33.905Z,86.84
2023-01-18T11:12:44.236Z,86.63
2023-01-18T11:17:56.200Z,86.79
2023-01-18T11:23:14.759Z,85.42
2023-01-18T11:28:19.954Z,85.05
2023-01-18T11:33:23.957Z,85.11
2023-01-18T11:38:28.492Z,85.10
2023-01-18T11:43:33.958Z,84.64
2023-01-18T11:48:44.718Z,84.67
2023-01-18T11:53:55.680Z,84.73
2023-01-18T11:58:57.811Z,84.61
2023-01-18T12:04:03.964Z,83.65
2023-01-18T12:09:11.696Z,83.68
2023-01-18T12:14:28.593Z,82.53
2023-01-18T12:19:52.491Z,81.81
2023-01-18T12:25:00.319Z,81.51
2023-01-18T12:30:29.749Z,80.34
2023-01-18T12:35:50.610Z,79.52
2023-01-18T12:41:26.746Z,79.80
2023-01-18T12:46:43.671Z,79.87
2023-01-18T12:51:49.343Z,79.34
2023-01-18T12:56:54.816Z,79.08
2023-01-18T13:02:24.314Z,78.63
2023-01-18T13:07:32.976Z,78.61
2023-01-18T13:12:34.757Z,78.55
2023-01-18T13:17:36.735Z,78.38
2023-01-18T13:23:03.571Z,77.44
2023-01-18T13:28:18.722Z,77.24
2023-01-18T13:33:26.158Z,77.37
2023-01-18T13:38:40.994Z,77.71
2023-01-18T13:43:43.374Z,78.39
2023-01-18T13:48:46.552Z,78.57
2023-01-18T13:53:50.099Z,78.98
2023-01-18T13:59:01.718Z,78.81
2023-01-18T14:04:31.939Z,78.91
2023-01-18T14:09:43.284Z,78.30
2023-01-18T14:15:00.913Z,78.84
2023-01-18T14:20:34.170Z,79.23
2023-01-18T14:25:48.634Z,79.53
2023-01-18T14:30:54.764Z,79.49
2023-01-18T14:35:59.098Z,79.78
2023-01-18T14:41:08.440Z,79.40
2023-01-18T14:46:15.825Z,79.34
2023-01-18T14:51:22.268Z,79.05
2023-01-18T14:56:29.291Z,79.07
2023-01-18T15:01:31.301Z,79.37
2023-01-18T15:06:43.618Z,79.32
2023-01-18T15:11:45.500Z,80.03
2023-01-18T15:16:50.480Z,80.75
2023-01-18T15:21:52.238Z,80.91
2023-01-18T15:26:56.173Z,81.63
2023-01-18T15:32:02.447Z,82.18
2023-01-18T15:37:09.950Z,82.05
2023-01-18T15:42:15.300Z,81.95
2023-01-18T15:47:23.678Z,81.88
2023-01-18T15:52:43.979Z,81.90
2023-01-18T15:58:00.823Z,82.10
2023-01-18T16:03:04.457Z,82.21
2023-01-18T16:08:21.368Z,81.98
2023-01-18T16:13:26.607Z,82.11
2023-01-18T16:18:28.246Z,82.35
2023-01-18T16:23:30.024Z,82.52
2023-01-18T16:28:32.060Z,82.72
2023-01-18T16:33:33.701Z,82.89
2023-01-18T16:38:35.530Z,82.69
2023-01-18T16:43:37.219Z,83.11
2023-01-18T16:48:38.935Z,83.13
2023-01-18T16:53:40.649Z,83.15
2023-01-18T16:58:43.571Z,83.43
2023-01-18T17:03:45.604Z,83.21
2023-01-18T17:08:49.142Z,83.49
2023-01-18T17:13:50.914Z,83.42
2023-01-18T17:18:52.564Z,83.76
2023-01-18T17:23:54.327Z,83.31
2023-01-18T17:28:55.969Z,83.15
2023-01-18T17:33:58.685Z,83.29
2023-01-18T17:39:00.358Z,83.19
2023-01-18T17:44:03.168Z,83.25
2023-01-18T17:49:04.928Z,83.04
2023-01-18T17:54:13.137Z,82.87
2023-01-18T17:59:22.247Z,82.75
2023-01-18T18:04:23.911Z,82.50
2023-01-18T18:09:25.850Z,82.16
2023-01-18T18:14:30.796Z,82.31
2023-01-18T18:19:33.580Z,81.79
2023-01-18T18:24:35.243Z,81.42
2023-01-18T18:29:36.902Z,81.19
2023-01-18T18:34:38.687Z,81.12
2023-01-18T18:39:40.599Z,80.99
2023-01-18T18:44:42.267Z,81.05
2023-01-18T18:49:44.951Z,80.86
2023-01-18T18:54:46.894Z,80.68
2023-01-18T18:59:49.367Z,80.37
2023-01-18T19:04:51.172Z,80.28
2023-01-18T19:09:53.344Z,80.01
2023-01-18T19:14:55.077Z,79.89
2023-01-18T19:19:56.842Z,79.41
2023-01-18T19:24:59.500Z,79.10
2023-01-18T19:30:01.227Z,78.98
2023-01-18T19:35:03.093Z,79.31
2023-01-18T19:40:05.785Z,79.06
2023-01-18T19:45:08.211Z,79.50
2023-01-18T19:50:11.634Z,79.78
2023-01-18T19:55:13.792Z,79.87
2023-01-18T20:00:16.610Z,80.08
2023-01-18T20:05:18.344Z,80.14
2023-01-18T20:10:20.232Z,80.41
2023-01-18T20:15:22.989Z,80.67
2023-01-18T20:20:32.502Z,80.63
2023-01-18T20:25:34.656Z,80.67
2023-01-18T20:30:39.158Z,80.82
2023-01-18T20:35:42.077Z,80.92
2023-01-18T20:41:24.225Z,81.37
2023-01-18T20:47:06.138Z,81.26
2023-01-18T20:52:22.416Z,81.70
2023-01-18T20:57:37.279Z,81.86
2023-01-18T21:02:42.215Z,82.12
2023-01-18T21:07:44.139Z,82.22
2023-01-18T21:12:47.554Z,82.73
2023-01-18T21:17:51.397Z,82.59
2023-01-18T21:22:53.233Z,82.76
2023-01-18T21:27:55.300Z,82.80
2023-01-18T21:32:57.011Z,83.21
2023-01-18T21:38:02.436Z,82.85
2023-01-18T21:43:22.591Z,83.75
2023-01-18T21:48:26.560Z,83.87
2023-01-18T21:53:46.935Z,84.31
2023-01-18T21:58:55.036Z,84.61
2023-01-18T22:04:15.431Z,84.43
2023-01-18T22:09:17.789Z,84.10
2023-01-18T22:14:19.549Z,83.75
2023-01-18T22:19:21.291Z,83.20
2023-01-18T22:24:23.114Z,82.71
2023-01-18T22:29:24.907Z,81.86
2023-01-18T22:34:26.993Z,81.53
2023-01-18T22:39:28.650Z,81.40
2023-01-18T22:44:30.419Z,81.21
2023-01-18T22:49:32.173Z,81.61
2023-01-18T22:54:33.922Z,81.58
2023-01-18T22:59:35.547Z,82.37
2023-01-18T23:04:37.175Z,82.82
2023-01-18T23:09:39.027Z,83.81
2023-01-18T23:14:59.359Z,83.86
2023-01-18T23:20:01.123Z,84.23
2023-01-18T23:25:03.824Z,84.32
2023-01-18T23:30:05.770Z,83.97
2023-01-18T23:35:07.828Z,84.21
2023-01-18T23:40:28.935Z,84.05
2023-01-18T23:45:49.239Z,83.89
2023-01-18T23:51:09.549Z,83.95
2023-01-18T23:56:11.328Z,84.01
